createdAt,value
2024-04-13T00:00:32.010Z,29.50
2024-04-13T00:01:31.950Z,29.48
2024-04-13T00:02:31.989Z,29.45
2024-04-13T00:03:32.168Z,29.47
2024-04-13T00:04:32.149Z,29.51
2024-04-13T00:05:32.228Z,29.52
2024-04-13T00:06:32.404Z,29.48
2024-04-13T00:07:32.387Z,29.49
2024-04-13T00:08:32.453Z,29.44
2024-04-13T00:09:32.549Z,29.51
2024-04-13T00:10:32.613Z,29.48
2024-04-13T00:11:32.704Z,29.47
2024-04-13T00:12:32.854Z,29.48
2024-04-13T00:13:32.865Z,29.48
2024-04-13T00:14:33.023Z,29.51
2024-04-13T00:15:33.210Z,29.51
2024-04-13T00:16:33.131Z,29.50
2024-04-13T00:17:33.331Z,29.47
2024-04-13T00:18:33.329Z,29.52
2024-04-13T00:19:33.313Z,29.53
2024-04-13T00:20:33.452Z,29.50
2024-04-13T00:21:33.522Z,29.51
2024-04-13T00:22:33.593Z,29.51
2024-04-13T00:23:33.665Z,29.51
2024-04-13T00:24:33.906Z,29.48
2024-04-13T00:25:33.801Z,29.51
2024-04-13T00:26:33.893Z,29.49
2024-04-13T00:27:33.996Z,29.47
2024-04-13T00:28:34.029Z,29.52
2024-04-13T00:29:34.099Z,29.50
2024-04-13T00:30:34.321Z,29.45
2024-04-13T00:31:34.369Z,29.48
2024-04-13T00:32:34.560Z,29.52
2024-04-13T00:33:34.511Z,29.52
2024-04-13T00:34:34.514Z,29.48
2024-04-13T00:35:34.584Z,29.49
2024-04-13T00:36:34.747Z,29.48
2024-04-13T00:37:34.751Z,29.50
2024-04-13T00:38:34.829Z,29.48
2024-04-13T00:39:35.027Z,29.49
2024-04-13T00:40:35.000Z,29.51
2024-04-13T00:41:35.070Z,29.48
2024-04-13T00:42:35.174Z,29.49
2024-04-13T00:43:35.231Z,29.53
2024-04-13T00:44:35.302Z,29.49
2024-04-13T00:45:35.496Z,29.50
2024-04-13T00:46:35.446Z,29.46
2024-04-13T00:47:35.589Z,29.52
2024-04-13T00:48:35.789Z,29.50
2024-04-13T00:49:35.708Z,29.45
2024-04-13T00:50:35.798Z,29.50
2024-04-13T00:51:36.035Z,29.46
2024-04-13T00:52:35.938Z,29.46
2024-04-13T00:53:36.019Z,29.50
2024-04-13T00:54:36.104Z,29.49
2024-04-13T00:55:36.176Z,29.52
2024-04-13T00:56:36.236Z,29.45
2024-04-13T00:57:36.399Z,29.45
2024-04-13T00:58:36.399Z,29.49
2024-04-13T00:59:39.424Z,29.50
2024-04-13T01:00:36.635Z,29.50
2024-04-13T01:01:36.508Z,29.51
2024-04-13T01:02:36.482Z,29.49
2024-04-13T01:03:36.893Z,29.49
2024-04-13T01:04:36.483Z,29.52
2024-04-13T01:05:36.486Z,29.43
2024-04-13T01:06:36.552Z,29.46
2024-04-13T01:07:36.495Z,29.48
2024-04-13T01:08:36.500Z,29.50
2024-04-13T01:09:36.568Z,29.53
2024-04-13T01:10:36.508Z,29.46
2024-04-13T01:11:36.574Z,29.50
2024-04-13T01:12:36.589Z,29.50
2024-04-13T01:13:36.524Z,29.46
2024-04-13T01:14:36.518Z,29.46
2024-04-13T01:15:36.570Z,29.42
2024-04-13T01:16:36.536Z,29.50
2024-04-13T01:17:36.593Z,29.46
2024-04-13T01:18:36.672Z,29.49
2024-04-13T01:19:36.620Z,29.50
2024-04-13T01:20:36.697Z,29.48
2024-04-13T01:21:37.329Z,29.46
2024-04-13T01:22:36.806Z,29.48
2024-04-13T01:23:36.898Z,29.45
2024-04-13T01:24:37.019Z,29.48
2024-04-13T01:25:36.938Z,29.49
2024-04-13T01:26:36.975Z,29.50
2024-04-13T01:27:37.048Z,29.53
2024-04-13T01:28:37.046Z,29.43
2024-04-13T01:29:37.102Z,29.43
2024-04-13T01:30:37.201Z,29.49
2024-04-13T01:31:37.216Z,29.46
2024-04-13T01:32:37.256Z,29.46
2024-04-13T01:33:37.314Z,29.50
2024-04-13T01:34:37.302Z,29.45
2024-04-13T01:35:37.361Z,29.43
2024-04-13T01:36:37.513Z,29.46
2024-04-13T01:37:37.418Z,29.46
2024-04-13T01:38:37.444Z,29.49
2024-04-13T01:39:37.543Z,29.48
2024-04-13T01:40:37.565Z,29.47
2024-04-13T01:41:37.966Z,29.43
2024-04-13T01:42:37.833Z,29.44
2024-04-13T01:43:37.847Z,29.46
2024-04-13T01:44:37.779Z,29.46
2024-04-13T01:45:37.898Z,29.49
2024-04-13T01:46:37.947Z,29.45
2024-04-13T01:47:38.104Z,29.46
2024-04-13T01:48:38.187Z,29.44
2024-04-13T01:49:38.172Z,29.45
2024-04-13T01:50:38.285Z,29.45
2024-04-13T01:51:38.443Z,29.44
2024-04-13T01:52:38.429Z,29.49
2024-04-13T01:53:38.516Z,29.44
2024-04-13T01:54:38.634Z,29.44
2024-04-13T01:55:38.698Z,29.48
2024-04-13T01:56:38.763Z,29.47
2024-04-13T01:57:38.844Z,29.44
2024-04-13T01:58:38.900Z,29.44
2024-04-13T01:59:38.993Z,29.46
2024-04-13T02:00:39.151Z,29.40
2024-04-13T02:01:39.181Z,29.46
2024-04-13T02:02:39.242Z,29.47
2024-04-13T02:03:39.711Z,29.46
2024-04-13T02:04:39.402Z,29.42
2024-04-13T02:05:39.460Z,29.40
2024-04-13T02:06:39.623Z,29.50
2024-04-13T02:07:39.662Z,29.42
2024-04-13T02:08:39.737Z,29.44
2024-04-13T02:09:39.890Z,29.50
2024-04-13T02:10:39.883Z,29.44
2024-04-13T02:11:39.986Z,29.46
2024-04-13T02:12:40.105Z,29.42
2024-04-13T02:13:40.140Z,29.49
2024-04-13T02:14:40.229Z,29.47
2024-04-13T02:15:40.366Z,29.46
2024-04-13T02:16:40.365Z,29.43
2024-04-13T02:17:40.511Z,29.44
2024-04-13T02:18:40.690Z,29.44
2024-04-13T02:19:40.778Z,29.44
2024-04-13T02:20:40.694Z,29.42
2024-04-13T02:21:40.830Z,29.46
2024-04-13T02:22:40.891Z,29.46
2024-04-13T02:23:40.986Z,29.40
2024-04-13T02:24:41.149Z,29.46
2024-04-13T02:25:41.114Z,29.39
2024-04-13T02:26:41.210Z,29.39
2024-04-13T02:27:41.293Z,29.46
2024-04-13T02:28:41.348Z,29.47
2024-04-13T02:29:41.446Z,29.46
2024-04-13T02:30:41.586Z,29.47
2024-04-13T02:31:41.639Z,29.46
2024-04-13T02:32:41.839Z,29.42
2024-04-13T02:33:41.871Z,29.46
2024-04-13T02:34:41.865Z,29.46
2024-04-13T02:35:41.937Z,29.49
2024-04-13T02:36:42.073Z,29.44
2024-04-13T02:37:42.214Z,29.47
2024-04-13T02:38:42.179Z,29.44
2024-04-13T02:39:42.293Z,29.47
2024-04-13T02:40:42.349Z,29.43
2024-04-13T02:41:42.430Z,29.43
2024-04-13T02:42:42.552Z,29.40
2024-04-13T02:43:42.597Z,29.43
2024-04-13T02:44:42.677Z,29.44
2024-04-13T02:45:42.784Z,29.39
2024-04-13T02:46:42.871Z,29.44
2024-04-13T02:47:42.992Z,29.46
2024-04-13T02:48:43.334Z,29.44
2024-04-13T02:49:43.103Z,29.44
2024-04-13T02:50:43.167Z,29.40
2024-04-13T02:51:43.263Z,29.43
2024-04-13T02:52:43.329Z,29.44
2024-04-13T02:53:43.427Z,29.40
2024-04-13T02:54:43.551Z,29.43
2024-04-13T02:55:43.588Z,29.46
2024-04-13T02:56:43.665Z,29.44
2024-04-13T02:57:43.845Z,29.47
2024-04-13T02:58:43.831Z,29.47
2024-04-13T02:59:43.934Z,29.44
2024-04-13T03:00:44.067Z,29.37
2024-04-13T03:01:44.094Z,29.47
2024-04-13T03:02:44.213Z,29.43
2024-04-13T03:03:44.325Z,29.40
2024-04-13T03:04:44.324Z,29.43
2024-04-13T03:05:45.234Z,29.46
2024-04-13T03:06:44.523Z,29.41
2024-04-13T03:07:44.594Z,29.40
2024-04-13T03:08:44.678Z,29.40
2024-04-13T03:09:44.806Z,29.46
2024-04-13T03:10:44.823Z,29.43
2024-04-13T03:11:44.927Z,29.44
2024-04-13T03:12:45.034Z,29.40
2024-04-13T03:13:45.085Z,29.42
2024-04-13T03:14:45.172Z,29.39
2024-04-13T03:15:45.257Z,29.39
2024-04-13T03:16:45.360Z,29.38
2024-04-13T03:17:45.469Z,29.43
2024-04-13T03:18:45.980Z,29.44
2024-04-13T03:19:45.591Z,29.44
2024-04-13T03:20:45.696Z,29.37
2024-04-13T03:21:46.312Z,29.43
2024-04-13T03:22:45.860Z,29.37
2024-04-13T03:23:45.928Z,29.43
2024-04-13T03:24:46.014Z,29.41
2024-04-13T03:25:46.098Z,29.41
2024-04-13T03:26:46.197Z,29.47
2024-04-13T03:27:46.278Z,29.38
2024-04-13T03:28:46.360Z,29.43
2024-04-13T03:29:46.433Z,29.41
2024-04-13T03:30:46.538Z,29.36
2024-04-13T03:31:46.595Z,29.37
2024-04-13T03:32:46.795Z,29.36
2024-04-13T03:33:46.843Z,29.34
2024-04-13T03:34:46.868Z,29.41
2024-04-13T03:35:46.968Z,29.37
2024-04-13T03:36:47.050Z,29.39
2024-04-13T03:37:47.100Z,29.37
2024-04-13T03:38:47.182Z,29.39
2024-04-13T03:39:47.324Z,29.34
2024-04-13T03:40:47.360Z,29.44
2024-04-13T03:41:47.465Z,29.45
2024-04-13T03:42:47.544Z,29.37
2024-04-13T03:43:47.602Z,29.40
2024-04-13T03:44:47.684Z,29.41
2024-04-13T03:45:47.820Z,29.40
2024-04-13T03:46:47.870Z,29.41
2024-04-13T03:47:48.094Z,29.35
2024-04-13T03:48:48.174Z,29.33
2024-04-13T03:49:48.148Z,29.36
2024-04-13T03:50:48.230Z,29.34
2024-04-13T03:51:48.333Z,29.37
2024-04-13T03:52:48.404Z,29.38
2024-04-13T03:53:48.487Z,29.34
2024-04-13T03:54:48.553Z,29.38
2024-04-13T03:55:48.618Z,29.36
2024-04-13T03:56:48.744Z,29.40
2024-04-13T03:57:48.823Z,29.35
2024-04-13T03:58:48.910Z,29.36
2024-04-13T03:59:49.000Z,29.38
2024-04-13T04:00:49.118Z,29.39
2024-04-13T04:01:49.176Z,29.35
2024-04-13T04:02:49.222Z,29.34
2024-04-13T04:03:49.397Z,29.38
2024-04-13T04:04:49.404Z,29.38
2024-04-13T04:05:49.479Z,29.36
2024-04-13T04:06:49.657Z,29.38
2024-04-13T04:07:49.673Z,29.33
2024-04-13T04:08:49.776Z,29.38
2024-04-13T04:09:49.850Z,29.37
2024-04-13T04:10:49.924Z,29.33
2024-04-13T04:11:50.039Z,29.37
2024-04-13T04:12:50.107Z,29.38
2024-04-13T04:13:50.192Z,29.36
2024-04-13T04:14:50.270Z,29.34
2024-04-13T04:15:50.372Z,29.37
2024-04-13T04:16:50.774Z,29.35
2024-04-13T04:17:50.593Z,29.36
2024-04-13T04:18:50.713Z,29.38
2024-04-13T04:19:50.704Z,29.32
2024-04-13T04:20:50.797Z,29.37
2024-04-13T04:21:50.889Z,29.34
2024-04-13T04:22:50.937Z,29.34
2024-04-13T04:23:51.033Z,29.33
2024-04-13T04:24:51.107Z,29.37
2024-04-13T04:25:51.225Z,29.32
2024-04-13T04:26:51.312Z,29.35
2024-04-13T04:27:51.385Z,29.35
2024-04-13T04:28:51.445Z,29.35
2024-04-13T04:29:51.546Z,29.27
2024-04-13T04:30:51.602Z,29.32
2024-04-13T04:31:51.712Z,29.38
2024-04-13T04:32:51.947Z,29.32
2024-04-13T04:33:51.929Z,29.31
2024-04-13T04:34:51.925Z,29.33
2024-04-13T04:35:52.000Z,29.34
2024-04-13T04:36:52.118Z,29.32
2024-04-13T04:37:52.181Z,29.31
2024-04-13T04:38:52.269Z,29.34
2024-04-13T04:39:52.346Z,29.28
2024-04-13T04:40:52.449Z,29.29
2024-04-13T04:41:52.532Z,29.32
2024-04-13T04:42:52.615Z,29.32
2024-04-13T04:43:59.890Z,29.38
2024-04-13T04:44:59.889Z,29.32
2024-04-13T04:45:59.900Z,29.31
2024-04-13T04:46:59.906Z,29.31
2024-04-13T04:47:59.903Z,29.34
2024-04-13T04:48:59.888Z,29.28
2024-04-13T04:49:59.878Z,29.28
2024-04-13T04:50:59.910Z,29.34
2024-04-13T04:51:59.901Z,29.31
2024-04-13T04:52:59.907Z,29.24
2024-04-13T04:53:59.884Z,29.29
2024-04-13T04:54:59.908Z,29.34
2024-04-13T04:55:59.904Z,29.32
2024-04-13T04:56:59.910Z,29.28
2024-04-13T04:57:59.905Z,29.29
2024-04-13T04:58:59.906Z,29.31
2024-04-13T04:59:59.925Z,29.28
2024-04-13T05:00:59.968Z,29.29
2024-04-13T05:02:00.384Z,29.26
2024-04-13T05:02:59.919Z,29.28
2024-04-13T05:03:59.968Z,29.29
2024-04-13T05:04:59.914Z,29.24
2024-04-13T05:05:59.925Z,29.28
2024-04-13T05:06:59.918Z,29.28
2024-04-13T05:08:00.174Z,29.26
2024-04-13T05:08:59.931Z,29.25
2024-04-13T05:09:59.930Z,29.28
2024-04-13T05:11:00.039Z,29.27
2024-04-13T05:11:59.944Z,29.26
2024-04-13T05:12:59.951Z,29.24
2024-04-13T05:13:59.978Z,29.25
2024-04-13T05:15:00.066Z,29.26
2024-04-13T05:16:00.155Z,29.25
2024-04-13T05:17:00.222Z,29.25
2024-04-13T05:18:00.455Z,29.27
2024-04-13T05:19:00.534Z,29.24
2024-04-13T05:20:00.502Z,29.29
2024-04-13T05:21:00.567Z,29.25
2024-04-13T05:22:00.653Z,29.26
2024-04-13T05:23:00.723Z,29.27
2024-04-13T05:24:00.781Z,29.24
2024-04-13T05:25:00.898Z,29.27
2024-04-13T05:26:00.978Z,29.27
2024-04-13T05:27:01.069Z,29.24
2024-04-13T05:28:01.159Z,29.22
2024-04-13T05:29:01.217Z,29.26
2024-04-13T05:30:01.329Z,29.27
2024-04-13T05:31:01.393Z,29.26
2024-04-13T05:32:01.504Z,29.26
2024-04-13T05:33:01.675Z,29.25
2024-04-13T05:34:01.659Z,29.21
2024-04-13T05:35:01.719Z,29.25
2024-04-13T05:36:04.673Z,29.20
2024-04-13T05:37:01.842Z,29.24
2024-04-13T05:38:01.830Z,29.26
2024-04-13T05:39:01.822Z,29.25
2024-04-13T05:40:01.840Z,29.23
2024-04-13T05:41:01.808Z,29.25
2024-04-13T05:42:01.812Z,29.19
2024-04-13T05:43:01.822Z,29.22
2024-04-13T05:44:01.830Z,29.20
2024-04-13T05:45:01.863Z,29.24
2024-04-13T05:46:01.815Z,29.21
2024-04-13T05:47:01.836Z,29.19
2024-04-13T05:48:01.880Z,29.21
2024-04-13T05:49:01.839Z,29.24
2024-04-13T05:50:01.862Z,29.18
2024-04-13T05:51:01.850Z,29.24
2024-04-13T05:52:01.816Z,29.23
2024-04-13T05:53:01.820Z,29.16
2024-04-13T05:54:01.831Z,29.18
2024-04-13T05:55:01.853Z,29.18
2024-04-13T05:56:01.838Z,29.18
2024-04-13T05:57:01.894Z,29.20
2024-04-13T05:58:01.855Z,29.18
2024-04-13T05:59:01.873Z,29.20
2024-04-13T06:00:01.863Z,29.17
2024-04-13T06:01:01.981Z,29.20
2024-04-13T06:02:01.874Z,29.18
2024-04-13T06:03:01.902Z,29.18
2024-04-13T06:04:01.886Z,29.24
2024-04-13T06:05:01.873Z,29.21
2024-04-13T06:06:01.884Z,29.14
2024-04-13T06:07:01.904Z,29.18
2024-04-13T06:08:01.896Z,29.18
2024-04-13T06:09:01.885Z,29.21
2024-04-13T06:10:01.897Z,29.20
2024-04-13T06:11:01.939Z,29.17
2024-04-13T06:12:01.889Z,29.14
2024-04-13T06:13:01.906Z,29.18
2024-04-13T06:14:01.891Z,29.18
2024-04-13T06:15:01.900Z,29.14
2024-04-13T06:16:01.993Z,29.15
2024-04-13T06:17:02.072Z,29.12
2024-04-13T06:18:02.196Z,29.20
2024-04-13T06:19:03.627Z,29.15
2024-04-13T06:20:02.283Z,29.14
2024-04-13T06:21:02.331Z,29.21
2024-04-13T06:22:02.382Z,29.13
2024-04-13T06:23:02.427Z,29.14
2024-04-13T06:24:02.462Z,29.14
2024-04-13T06:25:02.508Z,29.13
2024-04-13T06:26:02.538Z,29.08
2024-04-13T06:27:02.568Z,29.11
2024-04-13T06:28:02.687Z,29.15
2024-04-13T06:29:02.664Z,29.13
2024-04-13T06:30:02.714Z,29.08
2024-04-13T06:31:02.936Z,29.10
2024-04-13T06:32:02.891Z,29.10
2024-04-13T06:33:03.045Z,29.09
2024-04-13T06:34:03.223Z,29.09
2024-04-13T06:35:03.203Z,29.07
2024-04-13T06:36:03.239Z,29.10
2024-04-13T06:37:03.382Z,29.11
2024-04-13T06:38:03.372Z,29.04
2024-04-13T06:39:03.450Z,29.09
2024-04-13T06:40:03.530Z,29.07
2024-04-13T06:41:03.619Z,29.10
2024-04-13T06:42:03.709Z,29.13
2024-04-13T06:43:03.786Z,29.07
2024-04-13T06:44:03.844Z,29.10
2024-04-13T06:45:03.938Z,29.03
2024-04-13T06:46:04.057Z,29.09
2024-04-13T06:47:04.134Z,29.00
2024-04-13T06:48:04.243Z,29.07
2024-04-13T06:49:04.280Z,29.02
2024-04-13T06:50:04.411Z,29.01
2024-04-13T06:51:04.403Z,29.06
2024-04-13T06:52:04.508Z,29.03
2024-04-13T06:53:04.573Z,28.96
2024-04-13T06:54:04.647Z,29.03
2024-04-13T06:55:04.714Z,28.96
2024-04-13T06:56:04.801Z,28.96
2024-04-13T06:57:04.911Z,28.98
2024-04-13T06:58:04.970Z,28.94
2024-04-13T06:59:05.028Z,28.98
2024-04-13T07:00:05.128Z,28.95
2024-04-13T07:01:05.286Z,28.94
2024-04-13T07:02:05.282Z,28.95
2024-04-13T07:03:05.661Z,28.92
2024-04-13T07:04:05.461Z,28.93
2024-04-13T07:05:05.403Z,28.92
2024-04-13T07:06:05.423Z,28.90
2024-04-13T07:07:05.468Z,28.91
2024-04-13T07:08:05.511Z,28.87
2024-04-13T07:09:05.568Z,28.89
2024-04-13T07:10:05.819Z,28.90
2024-04-13T07:11:05.645Z,28.84
2024-04-13T07:12:08.730Z,28.82
2024-04-13T07:13:05.665Z,28.79
2024-04-13T07:14:05.678Z,28.80
2024-04-13T07:15:05.649Z,28.80
2024-04-13T07:16:05.665Z,28.80
2024-04-13T07:17:05.691Z,28.80
2024-04-13T07:18:05.734Z,28.76
2024-04-13T07:19:05.680Z,28.81
2024-04-13T07:20:05.673Z,28.78
2024-04-13T07:21:05.675Z,28.77
2024-04-13T07:22:05.688Z,28.79
2024-04-13T07:23:05.732Z,28.69
2024-04-13T07:24:05.709Z,28.72
2024-04-13T07:25:05.732Z,28.78
2024-04-13T07:26:05.745Z,28.72
2024-04-13T07:27:05.727Z,28.72
2024-04-13T07:28:05.732Z,28.70
2024-04-13T07:29:05.731Z,28.75
2024-04-13T07:30:05.756Z,28.84
2024-04-13T07:31:05.815Z,28.78
2024-04-13T07:32:05.921Z,28.77
2024-04-13T07:33:06.049Z,28.87
2024-04-13T07:34:06.084Z,28.91
2024-04-13T07:35:06.110Z,28.90
2024-04-13T07:36:06.199Z,28.88
2024-04-13T07:37:06.259Z,28.74
2024-04-13T07:38:06.302Z,28.66
2024-04-13T07:39:06.415Z,28.65
2024-04-13T07:40:06.582Z,28.62
2024-04-13T07:41:06.569Z,28.59
2024-04-13T07:42:06.557Z,28.63
2024-04-13T07:43:06.724Z,28.61
2024-04-13T07:44:06.797Z,28.56
2024-04-13T07:45:06.793Z,28.55
2024-04-13T07:46:06.830Z,28.52
2024-04-13T07:47:06.883Z,28.57
2024-04-13T07:48:07.066Z,28.57
2024-04-13T07:49:07.154Z,28.56
2024-04-13T07:50:07.113Z,28.54
2024-04-13T07:51:07.182Z,28.50
2024-04-13T07:52:07.255Z,28.46
2024-04-13T07:53:07.341Z,28.46
2024-04-13T07:54:07.418Z,28.43
2024-04-13T07:55:07.476Z,28.33
2024-04-13T07:56:07.563Z,28.45
2024-04-13T07:57:07.629Z,28.39
2024-04-13T07:58:07.719Z,28.35
2024-04-13T07:59:07.805Z,28.36
2024-04-13T08:00:07.972Z,28.39
2024-04-13T08:01:08.052Z,28.31
2024-04-13T08:02:08.097Z,28.32
2024-04-13T08:03:08.170Z,28.29
2024-04-13T08:04:08.291Z,28.36
2024-04-13T08:05:08.368Z,28.31
2024-04-13T08:06:08.379Z,28.32
2024-04-13T08:07:08.505Z,28.32
2024-04-13T08:08:08.548Z,28.37
2024-04-13T08:09:08.668Z,28.25
2024-04-13T08:10:08.735Z,28.31
2024-04-13T08:11:08.834Z,28.33
2024-04-13T08:12:08.912Z,28.27
2024-04-13T08:13:09.026Z,28.28
2024-04-13T08:14:10.124Z,28.30
2024-04-13T08:15:09.115Z,28.29
2024-04-13T08:16:09.187Z,28.19
2024-04-13T08:17:09.207Z,28.20
2024-04-13T08:18:09.307Z,28.19
2024-04-13T08:19:09.303Z,28.19
2024-04-13T08:20:09.349Z,28.15
2024-04-13T08:21:09.371Z,28.15
2024-04-13T08:22:09.458Z,28.16
2024-04-13T08:23:09.567Z,28.21
2024-04-13T08:24:09.638Z,28.17
2024-04-13T08:25:09.770Z,28.11
2024-04-13T08:26:09.877Z,28.08
2024-04-13T08:27:09.956Z,28.15
2024-04-13T08:28:10.087Z,28.15
2024-04-13T08:29:10.157Z,28.12
2024-04-13T08:30:11.152Z,28.04
2024-04-13T08:31:10.338Z,28.11
2024-04-13T08:32:10.395Z,28.14
2024-04-13T08:33:10.447Z,28.07
2024-04-13T08:34:10.472Z,28.02
2024-04-13T08:35:10.521Z,28.04
2024-04-13T08:36:10.541Z,28.02
2024-04-13T08:37:10.594Z,28.04
2024-04-13T08:38:12.946Z,28.00
2024-04-13T08:39:10.737Z,28.04
2024-04-13T08:40:10.658Z,28.02
2024-04-13T08:41:10.651Z,28.01
2024-04-13T08:42:10.651Z,27.99
2024-04-13T08:43:10.664Z,27.98
2024-04-13T08:44:13.937Z,27.92
2024-04-13T08:45:10.674Z,27.96
2024-04-13T08:46:10.674Z,27.91
2024-04-13T08:47:10.671Z,27.95
2024-04-13T08:48:10.778Z,27.94
2024-04-13T08:49:10.726Z,27.94
2024-04-13T08:50:12.682Z,27.88
2024-04-13T08:51:10.708Z,27.91
2024-04-13T08:52:10.690Z,27.84
2024-04-13T08:53:10.656Z,27.89
2024-04-13T08:54:10.712Z,27.87
2024-04-13T08:55:10.695Z,27.87
2024-04-13T08:56:12.411Z,27.82
2024-04-13T08:57:10.793Z,27.84
2024-04-13T08:58:10.858Z,27.83
2024-04-13T08:59:10.902Z,27.79
2024-04-13T09:00:11.033Z,27.82
2024-04-13T09:01:11.013Z,27.82
2024-04-13T09:02:12.476Z,27.86
2024-04-13T09:03:11.131Z,27.83
2024-04-13T09:04:11.153Z,27.82
2024-04-13T09:05:11.097Z,27.75
2024-04-13T09:06:11.191Z,27.78
2024-04-13T09:07:11.179Z,27.81
2024-04-13T09:08:11.216Z,27.76
2024-04-13T09:09:11.310Z,27.76
2024-04-13T09:10:11.421Z,27.80
2024-04-13T09:11:11.592Z,27.72
2024-04-13T09:12:11.700Z,27.74
2024-04-13T09:13:11.721Z,27.70
2024-04-13T09:14:11.827Z,27.65
2024-04-13T09:15:11.952Z,27.75
2024-04-13T09:16:12.089Z,27.70
2024-04-13T09:17:12.179Z,27.70
2024-04-13T09:18:12.378Z,27.70
2024-04-13T09:19:12.375Z,27.67
2024-04-13T09:20:12.457Z,27.64
2024-04-13T09:21:12.584Z,27.67
2024-04-13T09:22:12.689Z,27.66
2024-04-13T09:23:12.789Z,27.69
2024-04-13T09:24:13.130Z,27.64
2024-04-13T09:25:15.465Z,27.67
2024-04-13T09:26:13.145Z,27.70
2024-04-13T09:27:13.192Z,27.63
2024-04-13T09:28:13.173Z,27.64
2024-04-13T09:29:13.363Z,27.67
2024-04-13T09:30:13.331Z,27.65
2024-04-13T09:31:13.356Z,27.65
2024-04-13T09:32:13.461Z,27.65
2024-04-13T09:33:13.443Z,27.66
2024-04-13T09:34:13.425Z,27.61
2024-04-13T09:35:13.456Z,27.59
2024-04-13T09:36:13.540Z,27.60
2024-04-13T09:37:13.639Z,27.66
2024-04-13T09:38:13.738Z,27.58
2024-04-13T09:39:13.885Z,27.61
2024-04-13T09:40:13.999Z,27.61
2024-04-13T09:41:14.096Z,27.58
2024-04-13T09:42:14.299Z,27.58
2024-04-13T09:43:14.321Z,27.57
2024-04-13T09:44:14.434Z,27.58
2024-04-13T09:45:14.564Z,27.54
2024-04-13T09:46:14.662Z,27.55
2024-04-13T09:47:14.783Z,27.60
2024-04-13T09:48:14.961Z,27.57
2024-04-13T09:49:15.041Z,27.53
2024-04-13T09:50:15.101Z,27.53
2024-04-13T09:51:15.249Z,27.59
2024-04-13T09:52:15.343Z,27.52
2024-04-13T09:53:15.451Z,27.53
2024-04-13T09:54:15.584Z,27.50
2024-04-13T09:55:15.668Z,27.49
2024-04-13T09:56:15.760Z,27.47
2024-04-13T09:57:15.904Z,27.49
2024-04-13T09:58:15.993Z,27.50
2024-04-13T09:59:16.078Z,27.47
2024-04-13T10:00:16.236Z,27.43
2024-04-13T10:01:16.372Z,27.48
2024-04-13T10:02:16.505Z,27.56
2024-04-13T10:03:16.697Z,27.44
2024-04-13T10:04:16.729Z,27.48
2024-04-13T10:05:16.742Z,27.50
2024-04-13T10:06:16.979Z,27.48
2024-04-13T10:07:16.957Z,27.48
2024-04-13T10:08:17.066Z,27.47
2024-04-13T10:09:17.184Z,27.52
2024-04-13T10:10:17.299Z,27.45
2024-04-13T10:11:17.428Z,27.49
2024-04-13T10:12:17.472Z,27.49
2024-04-13T10:13:17.592Z,27.49
2024-04-13T10:14:17.704Z,27.49
2024-04-13T10:15:17.876Z,27.42
2024-04-13T10:16:17.908Z,27.52
2024-04-13T10:17:18.023Z,27.51
2024-04-13T10:18:18.135Z,27.47
2024-04-13T10:19:18.259Z,27.44
2024-04-13T10:20:18.320Z,27.51
2024-04-13T10:21:18.411Z,27.50
2024-04-13T10:22:27.991Z,27.50
2024-04-13T10:23:19.542Z,27.43
2024-04-13T10:24:18.579Z,27.48
2024-04-13T10:25:18.520Z,27.44
2024-04-13T10:26:18.526Z,27.46
2024-04-13T10:27:18.595Z,27.48
2024-04-13T10:28:18.511Z,27.49
2024-04-13T10:29:18.552Z,27.47
2024-04-13T10:30:18.532Z,27.47
2024-04-13T10:31:18.575Z,27.41
2024-04-13T10:32:18.531Z,27.47
2024-04-13T10:33:18.552Z,27.46
2024-04-13T10:34:18.619Z,27.40
2024-04-13T10:35:18.696Z,27.43
2024-04-13T10:36:18.836Z,27.47
2024-04-13T10:37:18.917Z,27.47
2024-04-13T10:38:18.998Z,27.46
2024-04-13T10:39:19.158Z,27.43
2024-04-13T10:40:19.183Z,27.49
2024-04-13T10:41:19.286Z,27.46
2024-04-13T10:42:19.436Z,27.45
2024-04-13T10:43:19.471Z,27.40
2024-04-13T10:44:19.550Z,27.42
2024-04-13T10:45:19.791Z,27.43
2024-04-13T10:46:19.737Z,27.42
2024-04-13T10:47:19.866Z,27.43
2024-04-13T10:48:20.003Z,27.40
2024-04-13T10:49:20.068Z,27.41
2024-04-13T10:50:20.103Z,27.45
2024-04-13T10:51:20.197Z,27.43
2024-04-13T10:52:20.257Z,27.45
2024-04-13T10:53:20.379Z,27.41
2024-04-13T10:54:20.479Z,27.46
2024-04-13T10:55:20.602Z,27.49
2024-04-13T10:56:20.600Z,27.44
2024-04-13T10:57:20.784Z,27.41
2024-04-13T10:58:20.817Z,27.46
2024-04-13T10:59:20.879Z,27.45
2024-04-13T11:00:21.050Z,27.46
2024-04-13T11:01:21.150Z,27.42
2024-04-13T11:02:21.194Z,27.45
2024-04-13T11:03:21.317Z,27.46
2024-04-13T11:04:21.334Z,27.46
2024-04-13T11:05:21.575Z,27.48
2024-04-13T11:06:21.492Z,27.41
2024-04-13T11:07:21.579Z,27.41
2024-04-13T11:08:21.644Z,27.45
2024-04-13T11:09:21.770Z,27.44
2024-04-13T11:10:21.815Z,27.38
2024-04-13T11:11:22.000Z,27.42
2024-04-13T11:12:22.034Z,27.42
2024-04-13T11:13:22.100Z,27.42
2024-04-13T11:14:22.162Z,27.47
2024-04-13T11:15:22.270Z,27.45
2024-04-13T11:16:22.325Z,27.47
2024-04-13T11:17:22.420Z,27.41
2024-04-13T11:18:22.675Z,27.38
2024-04-13T11:19:22.606Z,27.38
2024-04-13T11:20:22.559Z,27.48
2024-04-13T11:21:22.671Z,27.47
2024-04-13T11:22:22.676Z,27.44
2024-04-13T11:23:22.699Z,27.51
2024-04-13T11:24:22.735Z,27.45
2024-04-13T11:25:23.677Z,27.45
2024-04-13T11:26:22.802Z,27.45
2024-04-13T11:27:22.895Z,27.44
2024-04-13T11:28:22.902Z,27.40
2024-04-13T11:29:22.940Z,27.44
2024-04-13T11:30:23.012Z,27.48
2024-04-13T11:31:23.038Z,27.42
2024-04-13T11:32:23.105Z,27.41
2024-04-13T11:33:23.120Z,27.46
2024-04-13T11:34:23.133Z,27.42
2024-04-13T11:35:23.214Z,27.49
2024-04-13T11:36:23.337Z,27.49
2024-04-13T11:37:23.382Z,27.49
2024-04-13T11:38:23.447Z,27.51
2024-04-13T11:39:23.519Z,27.49
2024-04-13T11:40:23.621Z,27.45
2024-04-13T11:41:23.692Z,27.49
2024-04-13T11:42:29.371Z,27.45
2024-04-13T11:43:24.788Z,27.44
2024-04-13T11:44:23.768Z,27.42
2024-04-13T11:45:23.757Z,27.44
2024-04-13T11:46:23.759Z,27.49
2024-04-13T11:47:23.783Z,27.48
2024-04-13T11:48:23.929Z,27.48
2024-04-13T11:49:23.850Z,27.47
2024-04-13T11:50:23.835Z,27.49
2024-04-13T11:51:23.859Z,27.48
2024-04-13T11:52:23.811Z,27.48
2024-04-13T11:53:23.835Z,27.49
2024-04-13T11:54:23.856Z,27.54
2024-04-13T11:55:23.834Z,27.49
2024-04-13T11:56:23.880Z,27.49
2024-04-13T11:57:23.954Z,27.47
2024-04-13T11:58:24.031Z,27.51
2024-04-13T11:59:24.104Z,27.47
2024-04-13T12:00:24.186Z,27.57
2024-04-13T12:01:24.306Z,27.45
2024-04-13T12:02:24.388Z,27.48
2024-04-13T12:03:24.445Z,27.52
2024-04-13T12:04:24.596Z,27.51
2024-04-13T12:05:24.570Z,27.51
2024-04-13T12:06:24.654Z,27.47
2024-04-13T12:07:24.749Z,27.51
2024-04-13T12:08:24.833Z,27.52
2024-04-13T12:09:24.917Z,27.54
2024-04-13T12:10:25.015Z,27.49
2024-04-13T12:11:25.104Z,27.54
2024-04-13T12:12:25.135Z,27.52
2024-04-13T12:13:25.214Z,27.54
2024-04-13T12:14:26.440Z,27.52
2024-04-13T12:15:25.371Z,27.55
2024-04-13T12:16:25.374Z,27.51
2024-04-13T12:17:25.470Z,27.54
2024-04-13T12:18:25.561Z,27.52
2024-04-13T12:19:25.614Z,27.54
2024-04-13T12:20:25.635Z,27.52
2024-04-13T12:21:25.779Z,27.55
2024-04-13T12:22:25.774Z,27.57
2024-04-13T12:23:25.898Z,27.52
2024-04-13T12:24:26.004Z,27.61
2024-04-13T12:25:26.177Z,27.55
2024-04-13T12:26:26.124Z,27.55
2024-04-13T12:27:26.254Z,27.54
2024-04-13T12:28:26.302Z,27.51
2024-04-13T12:29:26.375Z,27.55
2024-04-13T12:30:26.491Z,27.52
2024-04-13T12:31:26.557Z,27.56
2024-04-13T12:32:26.713Z,27.58
2024-04-13T12:33:26.763Z,27.59
2024-04-13T12:34:26.796Z,27.51
2024-04-13T12:35:26.897Z,27.56
2024-04-13T12:36:26.995Z,27.56
2024-04-13T12:37:27.116Z,27.62
2024-04-13T12:38:27.132Z,27.58
2024-04-13T12:39:27.259Z,27.59
2024-04-13T12:40:27.311Z,27.59
2024-04-13T12:41:27.394Z,27.62
2024-04-13T12:42:27.501Z,27.61
2024-04-13T12:43:27.560Z,27.63
2024-04-13T12:44:27.660Z,27.60
2024-04-13T12:45:27.828Z,27.60
2024-04-13T12:46:27.815Z,27.56
2024-04-13T12:47:27.923Z,27.58
2024-04-13T12:48:28.086Z,27.60
2024-04-13T12:49:28.090Z,27.60
2024-04-13T12:50:28.165Z,27.56
2024-04-13T12:51:28.314Z,27.60
2024-04-13T12:52:28.357Z,27.60
2024-04-13T12:53:28.452Z,27.64